createdAt,value
2023-03-18T00:00:54.426Z,81.98
2023-03-18T00:04:06.536Z,82.61
2023-03-18T00:07:19.065Z,83.80
2023-03-18T00:10:31.886Z,84.00
2023-03-18T00:13:46.713Z,82.76
2023-03-18T00:16:58.778Z,82.70
2023-03-18T00:20:13.115Z,83.13
2023-03-18T00:23:26.265Z,82.69
2023-03-18T00:26:38.767Z,83.53
2023-03-18T00:29:51.797Z,82.79
2023-03-18T00:33:05.419Z,82.97
2023-03-18T00:36:21.446Z,84.30
2023-03-18T00:39:34.249Z,83.89
2023-03-18T00:42:48.106Z,82.86
2023-03-18T00:46:00.723Z,81.23
2023-03-18T00:49:14.269Z,83.25
2023-03-18T00:52:27.583Z,83.72
2023-03-18T00:55:39.787Z,83.97
2023-03-18T00:58:52.402Z,83.70
2023-03-18T01:02:04.629Z,85.24
2023-03-18T01:05:19.752Z,84.96
2023-03-18T01:08:32.657Z,85.33
2023-03-18T01:11:45.031Z,84.47
2023-03-18T01:14:58.146Z,83.69
2023-03-18T01:18:11.284Z,83.61
2023-03-18T01:21:24.307Z,83.79
2023-03-18T01:24:38.229Z,83.38
2023-03-18T01:27:50.784Z,83.36
2023-03-18T01:31:03.079Z,82.90
2023-03-18T01:34:16.632Z,84.84
2023-03-18T01:37:31.608Z,85.47
2023-03-18T01:40:48.391Z,84.57
2023-03-18T01:44:04.494Z,84.26
2023-03-18T01:47:17.470Z,84.01
2023-03-18T01:50:36.362Z,84.48
2023-03-18T01:53:54.325Z,84.66
2023-03-18T01:57:08.417Z,84.88
2023-03-18T02:00:23.557Z,85.07
2023-03-18T02:03:37.642Z,85.40
2023-03-18T02:06:50.410Z,85.56
2023-03-18T02:13:21.215Z,85.95
2023-03-18T02:16:38.651Z,85.21
2023-03-18T02:20:05.929Z,84.77
2023-03-18T02:23:24.113Z,86.29
2023-03-18T02:26:42.020Z,84.10
2023-03-18T02:29:58.339Z,84.39
2023-03-18T02:33:10.263Z,83.47
2023-03-18T02:36:28.052Z,84.85
2023-03-18T02:39:41.722Z,85.05
2023-03-18T02:42:55.271Z,84.25
2023-03-18T02:46:22.011Z,86.17
2023-03-18T02:49:35.054Z,85.50
2023-03-18T02:52:47.558Z,86.52
2023-03-18T02:56:00.101Z,86.41
2023-03-18T02:59:13.780Z,87.10
2023-03-18T03:02:26.012Z,87.29
2023-03-18T03:05:39.556Z,88.12
2023-03-18T03:08:51.784Z,86.56
2023-03-18T03:12:03.874Z,87.15
2023-03-18T03:15:18.139Z,87.19
2023-03-18T03:18:32.706Z,87.96
2023-03-18T03:21:45.001Z,87.48
2023-03-18T03:24:57.094Z,89.01
2023-03-18T03:28:10.446Z,89.32
2023-03-18T03:31:23.865Z,88.55
2023-03-18T03:34:36.208Z,89.34
2023-03-18T03:37:48.804Z,87.52
2023-03-18T03:41:02.409Z,88.81
2023-03-18T03:44:14.557Z,89.57
2023-03-18T03:47:26.565Z,89.99
2023-03-18T03:50:38.752Z,88.61
2023-03-18T03:53:50.867Z,88.66
2023-03-18T03:57:04.407Z,87.96
2023-03-18T04:00:22.245Z,89.25
2023-03-18T04:03:35.397Z,89.03
2023-03-18T04:06:49.319Z,88.15
2023-03-18T04:10:01.818Z,87.62
2023-03-18T04:13:15.664Z,88.90
2023-03-18T04:16:28.689Z,89.93
2023-03-18T04:19:41.621Z,88.93
2023-03-18T04:22:54.298Z,90.05
2023-03-18T04:26:07.072Z,88.95
2023-03-18T04:29:20.084Z,90.72
2023-03-18T04:32:32.402Z,90.19
2023-03-18T04:35:45.590Z,89.85
2023-03-18T04:39:00.045Z,90.24
2023-03-18T04:42:13.606Z,90.08
2023-03-18T04:45:26.131Z,90.46
2023-03-18T04:48:40.937Z,92.14
2023-03-18T04:51:53.716Z,90.33
2023-03-18T04:55:14.240Z,90.05
2023-03-18T04:58:26.528Z,90.39
2023-03-18T05:01:46.105Z,89.85
2023-03-18T05:05:01.455Z,90.58
2023-03-18T05:08:15.733Z,90.54
2023-03-18T05:11:29.478Z,91.75
2023-03-18T05:14:43.015Z,91.34
2023-03-18T05:17:55.377Z,90.93
2023-03-18T05:21:08.971Z,91.10
2023-03-18T05:24:22.056Z,90.71
2023-03-18T05:27:34.495Z,91.33
2023-03-18T05:30:48.626Z,91.50
2023-03-18T05:34:01.549Z,90.94
2023-03-18T05:37:18.876Z,90.51
2023-03-18T05:40:32.847Z,90.54
2023-03-18T05:43:47.648Z,89.33
2023-03-18T05:47:01.883Z,88.67
2023-03-18T05:50:39.647Z,90.13
2023-03-18T05:53:53.846Z,89.13
2023-03-18T05:57:09.385Z,88.51
2023-03-18T06:00:24.694Z,87.85
2023-03-18T06:03:37.673Z,87.96
2023-03-18T06:06:51.576Z,86.54
2023-03-18T06:10:03.934Z,84.81
2023-03-18T06:13:17.925Z,81.80
2023-03-18T06:16:31.133Z,79.79
2023-03-18T06:19:45.214Z,77.38
2023-03-18T06:22:55.671Z,76.39
2023-03-18T06:26:08.980Z,74.20
2023-03-18T06:29:23.068Z,71.77
2023-03-18T06:32:35.573Z,70.45
2023-03-18T06:35:48.456Z,68.72
2023-03-18T06:39:00.830Z,68.00
2023-03-18T06:42:13.861Z,65.72
2023-03-18T06:45:31.816Z,64.96
2023-03-18T06:48:46.928Z,63.98
2023-03-18T06:52:00.903Z,62.85
2023-03-18T06:55:16.723Z,61.53
2023-03-18T06:58:30.701Z,63.22
2023-03-18T07:01:47.783Z,59.80
2023-03-18T07:05:02.117Z,59.66
2023-03-18T07:08:15.773Z,59.88
2023-03-18T07:11:28.071Z,59.19
2023-03-18T07:14:44.221Z,57.68
2023-03-18T07:17:57.593Z,57.08
2023-03-18T07:21:10.166Z,56.06
2023-03-18T07:24:23.140Z,56.92
2023-03-18T07:27:35.364Z,55.69
2023-03-18T07:30:47.691Z,55.09
2023-03-18T07:33:59.814Z,55.33
2023-03-18T07:37:12.166Z,54.81
2023-03-18T07:40:24.815Z,54.58
2023-03-18T07:43:37.203Z,53.02
2023-03-18T07:46:49.433Z,54.50
2023-03-18T07:50:01.814Z,54.20
2023-03-18T07:53:16.585Z,53.09
2023-03-18T07:56:28.675Z,52.75
2023-03-18T07:59:41.714Z,52.73
2023-03-18T08:02:54.209Z,51.40
2023-03-18T08:06:06.332Z,53.00
2023-03-18T08:09:18.329Z,52.89
2023-03-18T08:12:41.609Z,51.16
2023-03-18T08:15:44.685Z,50.17
2023-03-18T08:18:56.697Z,48.91
2023-03-18T08:22:10.228Z,49.19
2023-03-18T08:25:23.691Z,48.33
2023-03-18T08:28:36.166Z,47.63
2023-03-18T08:31:48.137Z,48.01
2023-03-18T08:35:00.284Z,45.82
2023-03-18T08:38:12.274Z,45.76
2023-03-18T08:41:26.742Z,44.21
2023-03-18T08:44:40.316Z,43.64
2023-03-18T08:47:52.693Z,43.73
2023-03-18T08:51:04.908Z,43.07
2023-03-18T08:54:17.230Z,41.44
2023-03-18T08:57:30.466Z,38.68
2023-03-18T09:00:45.565Z,37.63
2023-03-18T09:03:59.250Z,36.94
2023-03-18T09:07:11.463Z,36.99
2023-03-18T09:10:24.231Z,36.28
2023-03-18T09:13:38.107Z,36.71
2023-03-18T09:16:50.681Z,35.25
2023-03-18T09:20:03.293Z,35.95
2023-03-18T09:23:18.306Z,35.58
2023-03-18T09:26:30.745Z,33.41
2023-03-18T09:29:43.229Z,34.88
2023-03-18T09:32:56.584Z,34.37
2023-03-18T09:36:09.927Z,34.01
2023-03-18T09:39:22.716Z,35.41
2023-03-18T09:42:52.460Z,34.83
2023-03-18T09:46:13.358Z,33.81
2023-03-18T09:49:59.329Z,33.51
2023-03-18T09:53:25.610Z,33.83
2023-03-18T09:56:41.720Z,34.22
2023-03-18T09:59:59.319Z,33.42
2023-03-18T10:03:17.233Z,33.56
2023-03-18T10:06:30.566Z,32.97
2023-03-18T10:09:48.439Z,33.27
2023-03-18T10:13:07.700Z,34.26
2023-03-18T10:16:26.422Z,32.17
2023-03-18T10:19:39.892Z,33.08
2023-03-18T10:23:17.389Z,33.78
2023-03-18T10:26:34.886Z,33.33
2023-03-18T10:29:53.300Z,32.17
2023-03-18T10:33:12.927Z,32.25
2023-03-18T10:36:30.826Z,31.96
2023-03-18T10:39:45.793Z,32.73
2023-03-18T10:43:00.054Z,31.55
2023-03-18T10:46:16.319Z,30.50
2023-03-18T10:49:31.937Z,31.43
2023-03-18T10:52:50.102Z,30.80
2023-03-18T10:56:08.956Z,31.24
2023-03-18T10:59:25.802Z,31.84
2023-03-18T11:02:45.705Z,31.77
2023-03-18T11:06:02.470Z,30.98
2023-03-18T11:09:20.342Z,31.27
2023-03-18T11:12:34.934Z,30.87
2023-03-18T11:15:53.041Z,31.14
2023-03-18T11:19:06.823Z,31.34
2023-03-18T11:22:27.553Z,31.59
2023-03-18T11:25:40.819Z,30.58
2023-03-18T11:28:53.046Z,31.20
2023-03-18T11:32:09.495Z,31.85
2023-03-18T11:35:27.730Z,32.36
2023-03-18T11:38:43.454Z,31.97
2023-03-18T11:41:54.034Z,32.02
2023-03-18T11:45:10.113Z,33.09
2023-03-18T11:48:31.818Z,32.53
2023-03-18T11:52:00.170Z,31.62
2023-03-18T11:55:27.106Z,31.58
2023-03-18T11:59:07.351Z,31.69
2023-03-18T12:02:40.430Z,31.70
2023-03-18T12:06:09.812Z,32.42
2023-03-18T12:09:27.915Z,32.65
2023-03-18T12:12:59.880Z,31.92
2023-03-18T12:16:21.216Z,32.62
2023-03-18T12:20:04.505Z,32.02
2023-03-18T12:23:46.113Z,31.92
2023-03-18T12:27:04.880Z,34.05
2023-03-18T12:30:56.096Z,32.83
2023-03-18T12:34:15.076Z,32.22
2023-03-18T12:37:38.845Z,33.12
2023-03-18T12:41:01.405Z,32.63
2023-03-18T12:44:29.263Z,33.19
2023-03-18T12:47:48.061Z,33.16
2023-03-18T12:51:05.454Z,32.08
2023-03-18T12:54:24.637Z,32.34
2023-03-18T12:57:45.266Z,32.20
2023-03-18T13:01:06.088Z,31.66
2023-03-18T13:04:23.678Z,32.65
2023-03-18T13:07:43.180Z,32.92
2023-03-18T13:11:02.147Z,32.83
2023-03-18T13:14:23.901Z,32.78
2023-03-18T13:17:40.039Z,32.28
2023-03-18T13:20:53.836Z,32.22
2023-03-18T13:24:29.328Z,32.15
2023-03-18T13:28:16.491Z,32.24
2023-03-18T13:31:38.657Z,31.69
2023-03-18T13:35:11.398Z,30.37
2023-03-18T13:38:36.899Z,30.96
2023-03-18T13:42:21.788Z,31.76
2023-03-18T13:45:37.693Z,31.48
2023-03-18T13:48:50.535Z,31.63
2023-03-18T13:52:06.069Z,30.89
2023-03-18T13:55:32.611Z,31.58
2023-03-18T13:58:52.724Z,32.37
2023-03-18T14:02:22.340Z,30.73
2023-03-18T14:05:47.005Z,32.18
2023-03-18T14:09:00.046Z,33.20
2023-03-18T14:12:28.808Z,32.81
2023-03-18T14:15:51.839Z,31.42
2023-03-18T14:19:08.027Z,30.13
2023-03-18T14:22:30.428Z,31.92
2023-03-18T14:26:05.899Z,32.91
2023-03-18T14:29:33.266Z,33.46
2023-03-18T14:32:46.994Z,32.54
2023-03-18T14:36:03.567Z,35.75
2023-03-18T14:39:22.091Z,34.11
2023-03-18T14:42:46.926Z,35.82
2023-03-18T14:46:03.071Z,32.89
2023-03-18T14:49:39.028Z,34.64
2023-03-18T14:52:58.334Z,35.51
2023-03-18T14:56:22.063Z,36.39
2023-03-18T14:59:34.404Z,36.22
2023-03-18T15:02:47.305Z,36.85
2023-03-18T15:06:03.717Z,37.59
2023-03-18T15:09:21.352Z,36.78
2023-03-18T15:12:37.356Z,38.34
2023-03-18T15:15:50.077Z,37.74
2023-03-18T15:19:03.725Z,37.37
2023-03-18T15:22:25.286Z,37.03
2023-03-18T15:25:38.064Z,35.94
2023-03-18T15:28:56.485Z,36.74
2023-03-18T15:32:23.352Z,39.05
2023-03-18T15:35:36.386Z,38.83
2023-03-18T15:38:53.978Z,39.12
2023-03-18T15:42:08.426Z,39.78
2023-03-18T15:45:25.632Z,40.74
2023-03-18T15:48:42.941Z,40.94
2023-03-18T15:51:55.402Z,40.48
2023-03-18T15:55:21.786Z,39.79
2023-03-18T15:58:40.765Z,40.11
2023-03-18T16:01:54.072Z,38.87
2023-03-18T16:05:17.797Z,38.33
2023-03-18T16:08:31.795Z,39.23
2023-03-18T16:11:44.022Z,38.82
2023-03-18T16:14:58.821Z,39.27
2023-03-18T16:18:12.848Z,39.58
2023-03-18T16:21:24.928Z,39.67
2023-03-18T16:24:36.991Z,40.33
2023-03-18T16:27:52.022Z,40.54
2023-03-18T16:31:04.232Z,39.99
2023-03-18T16:34:22.804Z,40.51
2023-03-18T16:37:35.634Z,41.14
2023-03-18T16:40:48.098Z,40.76
2023-03-18T16:44:01.229Z,40.90
2023-03-18T16:47:18.835Z,40.67
2023-03-18T16:50:34.514Z,40.94
2023-03-18T16:53:46.720Z,41.22
2023-03-18T16:57:02.364Z,41.54
2023-03-18T17:00:25.388Z,41.20
2023-03-18T17:03:38.180Z,41.50
2023-03-18T17:06:50.430Z,41.79
2023-03-18T17:10:02.287Z,41.80
2023-03-18T17:13:23.047Z,42.71
2023-03-18T17:16:36.533Z,42.29
2023-03-18T17:19:48.710Z,42.49
2023-03-18T17:23:04.080Z,43.43
2023-03-18T17:26:20.016Z,43.44
2023-03-18T17:29:33.690Z,44.09
2023-03-18T17:32:46.227Z,42.87
2023-03-18T17:36:00.404Z,45.24
2023-03-18T17:39:12.777Z,44.89
2023-03-18T17:42:36.353Z,44.22
2023-03-18T17:45:48.908Z,44.08
2023-03-18T17:49:01.161Z,45.23
2023-03-18T17:52:15.389Z,46.23
2023-03-18T17:55:29.425Z,46.87
2023-03-18T17:58:43.182Z,46.23
2023-03-18T18:01:56.867Z,47.12
2023-03-18T18:05:09.915Z,47.21
2023-03-18T18:08:25.737Z,49.65
2023-03-18T18:11:44.403Z,47.81
2023-03-18T18:14:56.846Z,47.10
2023-03-18T18:18:13.688Z,46.86
2023-03-18T18:21:29.848Z,52.98
2023-03-18T18:24:42.160Z,52.28
2023-03-18T18:27:54.716Z,49.57
2023-03-18T18:31:09.219Z,51.52
2023-03-18T18:34:21.857Z,52.68
2023-03-18T18:37:34.055Z,51.55
2023-03-18T18:40:48.745Z,51.15
2023-03-18T18:44:00.742Z,52.96
2023-03-18T18:47:24.521Z,54.91
2023-03-18T18:50:38.041Z,54.47
2023-03-18T18:53:50.672Z,52.87
2023-03-18T18:57:03.437Z,55.89
2023-03-18T19:00:24.698Z,56.14
2023-03-18T19:03:39.007Z,56.10
2023-03-18T19:06:52.639Z,56.75
2023-03-18T19:10:04.955Z,57.03
2023-03-18T19:13:21.019Z,55.57
2023-03-18T19:16:38.468Z,59.05
2023-03-18T19:19:51.565Z,56.19
2023-03-18T19:23:03.660Z,58.69
2023-03-18T19:26:21.277Z,58.93
2023-03-18T19:29:34.615Z,59.74
2023-03-18T19:32:47.103Z,59.34
2023-03-18T19:35:59.403Z,59.47
2023-03-18T19:39:15.357Z,60.25
2023-03-18T19:42:27.968Z,57.98
2023-03-18T19:45:41.174Z,58.33
2023-03-18T19:48:53.813Z,63.12
2023-03-18T19:52:06.944Z,62.21
2023-03-18T19:55:23.918Z,60.34
2023-03-18T19:58:36.884Z,60.29
2023-03-18T20:01:49.704Z,61.51
2023-03-18T20:05:04.270Z,63.07
2023-03-18T20:08:16.501Z,62.44
2023-03-18T20:11:28.887Z,59.03
2023-03-18T20:14:41.983Z,59.84
2023-03-18T20:17:55.563Z,60.73
2023-03-18T20:21:08.191Z,62.33
2023-03-18T20:24:25.739Z,63.96
2023-03-18T20:27:37.949Z,64.07
2023-03-18T20:30:52.382Z,65.09
2023-03-18T20:34:04.433Z,63.31
2023-03-18T20:37:26.123Z,63.01
2023-03-18T20:40:38.469Z,62.28
2023-03-18T20:43:51.232Z,63.59
2023-03-18T20:47:03.768Z,64.94
2023-03-18T20:50:20.030Z,64.47
2023-03-18T20:53:33.776Z,63.58
2023-03-18T20:56:45.813Z,64.39
2023-03-18T20:59:58.001Z,66.08
2023-03-18T21:03:10.654Z,68.21
2023-03-18T21:06:23.736Z,66.53
2023-03-18T21:09:35.940Z,68.24
2023-03-18T21:12:48.281Z,71.41
2023-03-18T21:16:02.025Z,72.58
2023-03-18T21:19:14.408Z,72.24
2023-03-18T21:22:33.578Z,70.49
2023-03-18T21:25:45.858Z,70.22
2023-03-18T21:28:59.046Z,69.86
2023-03-18T21:32:16.343Z,69.42
2023-03-18T21:35:31.767Z,68.43
2023-03-18T21:38:44.243Z,69.73
2023-03-18T21:41:56.258Z,71.33
2023-03-18T21:45:09.418Z,69.60
2023-03-18T21:48:21.817Z,68.22
2023-03-18T21:51:39.926Z,68.04
2023-03-18T21:54:51.595Z,68.50
2023-03-18T21:58:03.862Z,68.61
2023-03-18T22:01:22.949Z,69.82
2023-03-18T22:04:35.091Z,69.86
2023-03-18T22:07:47.873Z,70.80
2023-03-18T22:11:00.713Z,69.84
2023-03-18T22:14:13.888Z,70.10
2023-03-18T22:17:30.490Z,70.63
2023-03-18T22:20:44.030Z,73.16
2023-03-18T22:23:58.265Z,72.26
2023-03-18T22:27:10.706Z,71.44
2023-03-18T22:30:23.874Z,70.88
2023-03-18T22:33:39.018Z,71.86
2023-03-18T22:36:50.986Z,72.22
2023-03-18T22:40:03.183Z,73.25
2023-03-18T22:43:29.257Z,73.04
2023-03-18T22:46:41.407Z,73.56
2023-03-18T22:49:54.242Z,75.10
2023-03-18T22:53:10.092Z,77.65
2023-03-18T22:56:25.147Z,78.80
2023-03-18T22:59:37.324Z,79.90
2023-03-18T23:02:49.140Z,79.04
2023-03-18T23:06:03.119Z,78.78
2023-03-18T23:09:15.071Z,77.74
2023-03-18T23:12:28.109Z,78.07
2023-03-18T23:15:40.453Z,79.25
2023-03-18T23:18:53.176Z,78.57
2023-03-18T23:22:05.422Z,78.49
2023-03-18T23:25:21.929Z,77.65
2023-03-18T23:28:43.598Z,78.24
2023-03-18T23:31:48.248Z,78.15
2023-03-18T23:35:00.250Z,77.63
2023-03-18T23:38:12.504Z,77.76
2023-03-18T23:41:24.401Z,78.44
2023-03-18T23:44:36.402Z,80.52
2023-03-18T23:47:50.756Z,79.88
2023-03-18T23:51:02.721Z,81.16
2023-03-18T23:54:14.771Z,81.20
2023-03-18T23:57:27.073Z,79.86
